createdAt,value
2019-05-28T00:01:00.638Z,93.60
2019-05-28T00:03:30.213Z,93.70
2019-05-28T00:05:59.694Z,93.60
2019-05-28T00:08:29.201Z,93.90
2019-05-28T00:10:58.688Z,94.10
2019-05-28T00:13:28.199Z,94.20
2019-05-28T00:15:57.697Z,94.40
2019-05-28T00:18:27.367Z,94.40
2019-05-28T00:20:56.854Z,94.70
2019-05-28T00:23:26.368Z,95.00
2019-05-28T00:25:55.855Z,95.10
2019-05-28T00:28:25.430Z,94.60
2019-05-28T00:30:54.929Z,95.10
2019-05-28T00:33:24.441Z,95.00
2019-05-28T00:35:53.929Z,95.10
2019-05-28T00:38:23.566Z,95.40
2019-05-28T00:40:52.989Z,95.70
2019-05-28T00:43:22.570Z,95.80
2019-05-28T00:45:52.049Z,96.10
2019-05-28T00:48:21.698Z,96.10
2019-05-28T00:50:51.255Z,96.20
2019-05-28T00:53:20.827Z,96.40
2019-05-28T00:55:50.980Z,96.50
2019-05-28T00:58:20.597Z,96.40
2019-05-28T01:00:51.216Z,96.40
2019-05-28T01:03:20.736Z,96.60
2019-05-28T01:05:50.257Z,96.20
2019-05-28T01:08:19.742Z,96.60
2019-05-28T01:10:49.249Z,96.70
2019-05-28T01:13:18.749Z,96.90
2019-05-28T01:15:48.250Z,96.90
2019-05-28T01:18:17.801Z,96.80
2019-05-28T01:20:47.314Z,97.10
2019-05-28T01:23:16.799Z,97.40
2019-05-28T01:25:46.369Z,97.40
2019-05-28T01:28:15.862Z,97.40
2019-05-28T01:30:56.312Z,97.30
2019-05-28T01:33:16.481Z,97.70
2019-05-28T01:35:46.057Z,97.10
2019-05-28T01:38:15.545Z,97.60
2019-05-28T01:40:45.058Z,98.00
2019-05-28T01:43:14.535Z,98.40
2019-05-28T01:45:44.045Z,98.50
2019-05-28T01:48:13.529Z,98.70
2019-05-28T01:50:43.046Z,98.80
2019-05-28T01:53:12.539Z,98.70
2019-05-28T01:55:42.044Z,99.50
2019-05-28T01:58:11.574Z,99.50
2019-05-28T02:00:41.066Z,99.80
2019-05-28T02:03:10.622Z,99.70
2019-05-28T02:05:40.126Z,99.70
2019-05-28T02:08:09.682Z,99.90
2019-05-28T02:10:39.328Z,99.90
2019-05-28T02:13:08.808Z,99.90
2019-05-28T02:15:38.323Z,99.90
2019-05-28T02:18:07.802Z,99.90
2019-05-28T02:20:37.320Z,99.90
2019-05-28T02:23:06.783Z,99.90
2019-05-28T02:25:36.360Z,99.90
2019-05-28T02:28:05.918Z,99.90
2019-05-28T02:30:35.504Z,99.90
2019-05-28T02:33:05.066Z,99.90
2019-05-28T02:35:34.640Z,99.90
2019-05-28T02:38:04.393Z,99.90
2019-05-28T02:40:33.896Z,99.90
2019-05-28T02:43:03.377Z,99.90
2019-05-28T02:45:33.025Z,99.90
2019-05-28T02:48:02.521Z,99.90
2019-05-28T02:50:59.418Z,99.90
2019-05-28T02:53:30.039Z,99.90
2019-05-28T02:55:59.972Z,99.90
2019-05-28T02:58:35.549Z,99.90
2019-05-28T03:01:07.759Z,99.90
2019-05-28T03:03:37.389Z,99.90
2019-05-28T03:06:07.105Z,99.90
2019-05-28T03:08:36.732Z,99.90
2019-05-28T03:11:06.321Z,99.90
2019-05-28T03:13:35.804Z,99.90
2019-05-28T03:16:07.660Z,99.90
2019-05-28T03:18:39.184Z,99.90
2019-05-28T03:21:10.008Z,99.90
2019-05-28T03:23:40.529Z,99.90
2019-05-28T03:26:10.191Z,99.90
2019-05-28T03:28:39.752Z,99.90
2019-05-28T03:31:10.481Z,99.90
2019-05-28T03:33:40.051Z,99.90
2019-05-28T03:36:12.684Z,99.90
2019-05-28T03:38:44.609Z,99.90
2019-05-28T03:41:14.484Z,99.90
2019-05-28T03:43:43.977Z,99.90
2019-05-28T03:46:13.561Z,99.90
2019-05-28T03:48:43.045Z,99.90
2019-05-28T03:51:12.550Z,99.90
2019-05-28T03:53:42.034Z,99.90
2019-05-28T03:56:11.555Z,99.90
2019-05-28T03:58:41.049Z,99.90
2019-05-28T04:01:10.565Z,99.90
2019-05-28T04:03:40.135Z,99.90
2019-05-28T04:06:09.655Z,99.90
2019-05-28T04:08:39.136Z,99.90
2019-05-28T04:11:08.657Z,99.90
2019-05-28T04:13:38.155Z,99.90
2019-05-28T04:16:07.666Z,99.90
2019-05-28T04:18:37.165Z,99.90
2019-05-28T04:21:06.686Z,99.90
2019-05-28T04:23:36.184Z,99.90
2019-05-28T04:26:05.740Z,99.90
2019-05-28T04:28:35.196Z,99.90
2019-05-28T04:31:11.624Z,99.90
2019-05-28T04:33:41.108Z,99.90
2019-05-28T04:36:10.630Z,99.90
2019-05-28T04:38:40.121Z,99.90
2019-05-28T04:41:09.633Z,99.90
2019-05-28T04:43:39.146Z,99.90
2019-05-28T04:46:08.621Z,99.90
2019-05-28T04:48:38.147Z,99.90
2019-05-28T04:51:07.628Z,99.90
2019-05-28T04:53:37.164Z,99.90
2019-05-28T04:56:06.641Z,99.90
2019-05-28T04:58:36.161Z,99.90
2019-05-28T05:01:05.649Z,99.90
2019-05-28T05:03:35.226Z,99.90
2019-05-28T05:06:05.061Z,99.90
2019-05-28T05:08:34.574Z,99.90
2019-05-28T05:11:04.077Z,99.90
2019-05-28T05:13:33.591Z,99.90
2019-05-28T05:16:03.074Z,99.90
2019-05-28T05:18:32.604Z,99.90
2019-05-28T05:21:02.122Z,99.90
2019-05-28T05:23:31.699Z,99.90
2019-05-28T05:26:01.192Z,99.90
2019-05-28T05:28:30.696Z,99.90
2019-05-28T05:31:00.205Z,99.90
2019-05-28T05:33:31.664Z,99.90
2019-05-28T05:36:01.156Z,99.90
2019-05-28T05:38:30.675Z,99.90
2019-05-28T05:41:00.193Z,99.90
2019-05-28T05:43:29.680Z,99.90
2019-05-28T05:45:59.171Z,99.90
2019-05-28T05:48:28.676Z,99.90
2019-05-28T05:50:58.170Z,99.90
2019-05-28T05:53:27.690Z,99.90
2019-05-28T05:55:57.179Z,99.90
2019-05-28T05:58:26.760Z,99.90
2019-05-28T06:00:56.263Z,99.90
2019-05-28T06:03:39.632Z,99.90
2019-05-28T06:05:56.883Z,99.90
2019-05-28T06:08:26.389Z,99.90
2019-05-28T06:10:55.889Z,99.90
2019-05-28T06:13:25.396Z,99.90
2019-05-28T06:15:55.952Z,99.90
2019-05-28T06:18:25.488Z,99.90
2019-05-28T06:21:09.547Z,99.90
2019-05-28T06:23:26.217Z,99.90
2019-05-28T06:25:55.685Z,99.90
2019-05-28T06:28:25.292Z,99.90
2019-05-28T06:30:54.779Z,99.90
2019-05-28T06:33:24.289Z,99.90
2019-05-28T06:35:53.777Z,98.80
2019-05-28T06:38:23.294Z,99.00
2019-05-28T06:40:52.786Z,97.00
2019-05-28T06:43:22.305Z,96.50
2019-05-28T06:45:51.794Z,95.90
2019-05-28T06:48:21.305Z,96.10
2019-05-28T06:50:50.825Z,97.70
2019-05-28T06:53:21.285Z,99.20
2019-05-28T06:55:50.841Z,98.20
2019-05-28T06:58:35.679Z,97.60
2019-05-28T07:00:51.570Z,98.80
2019-05-28T07:03:21.071Z,99.90
2019-05-28T07:06:05.417Z,99.30
2019-05-28T07:08:21.693Z,96.90
2019-05-28T07:10:57.644Z,95.30
2019-05-28T07:13:22.325Z,95.60
2019-05-28T07:15:51.842Z,95.90
2019-05-28T07:18:21.395Z,94.10
2019-05-28T07:20:50.981Z,95.20
2019-05-28T07:23:20.470Z,97.30
2019-05-28T07:25:49.983Z,96.10
2019-05-28T07:28:19.461Z,93.30
2019-05-28T07:30:48.974Z,94.20
2019-05-28T07:33:18.503Z,92.90
2019-05-28T07:35:47.981Z,91.80
2019-05-28T07:38:17.535Z,91.10
2019-05-28T07:40:47.036Z,91.80
2019-05-28T07:43:16.525Z,93.00
2019-05-28T07:45:49.260Z,92.00
2019-05-28T07:48:18.823Z,92.10
2019-05-28T07:50:48.325Z,92.60
2019-05-28T07:53:17.822Z,93.50
2019-05-28T07:55:47.333Z,93.10
2019-05-28T07:58:16.823Z,93.00
2019-05-28T08:00:46.469Z,92.70
2019-05-28T08:03:16.017Z,93.00
2019-05-28T08:05:45.669Z,91.10
2019-05-28T08:08:17.461Z,93.30
2019-05-28T08:10:46.981Z,92.10
2019-05-28T08:13:16.641Z,93.30
2019-05-28T08:15:46.163Z,92.50
2019-05-28T08:18:15.653Z,92.30
2019-05-28T08:20:45.168Z,92.50
2019-05-28T08:23:14.722Z,93.10
2019-05-28T08:25:47.241Z,91.50
2019-05-28T08:28:20.023Z,89.60
2019-05-28T08:30:46.618Z,91.00
2019-05-28T08:33:16.191Z,90.50
2019-05-28T08:35:45.700Z,88.60
2019-05-28T08:38:15.191Z,89.10
2019-05-28T08:40:44.701Z,87.80
2019-05-28T08:43:14.451Z,88.20
2019-05-28T08:45:44.078Z,88.50
2019-05-28T08:48:13.610Z,87.70
2019-05-28T08:50:43.466Z,85.00
2019-05-28T08:53:12.941Z,84.50
2019-05-28T08:55:42.449Z,83.80
2019-05-28T08:58:12.352Z,85.60
2019-05-28T09:00:44.312Z,85.80
2019-05-28T09:03:14.040Z,84.70
2019-05-28T09:05:46.682Z,83.50
2019-05-28T09:08:16.319Z,82.80
2019-05-28T09:10:45.901Z,82.40
2019-05-28T09:13:15.442Z,83.60
2019-05-28T09:15:44.948Z,83.60
2019-05-28T09:18:14.501Z,85.80
2019-05-28T09:20:44.378Z,85.30
2019-05-28T09:23:13.193Z,85.50
2019-05-28T09:25:42.634Z,85.90
2019-05-28T09:28:28.111Z,86.60
2019-05-28T09:30:43.394Z,86.10
2019-05-28T09:33:12.920Z,87.20
2019-05-28T09:35:46.833Z,85.60
2019-05-28T09:38:14.429Z,86.90
2019-05-28T09:40:49.773Z,85.90
2019-05-28T09:43:15.129Z,86.60
2019-05-28T09:45:44.647Z,86.80
2019-05-28T09:48:14.284Z,87.40
2019-05-28T09:50:43.772Z,87.00
2019-05-28T09:53:14.330Z,85.30
2019-05-28T09:55:44.027Z,85.30
2019-05-28T09:58:13.482Z,86.50
2019-05-28T10:00:56.474Z,86.10
2019-05-28T10:03:19.862Z,87.60
2019-05-28T10:05:58.650Z,86.20
2019-05-28T10:08:20.469Z,86.80
2019-05-28T10:10:50.100Z,86.70
2019-05-28T10:13:36.839Z,84.70
2019-05-28T10:15:50.790Z,86.70
2019-05-28T10:18:20.312Z,87.20
2019-05-28T10:20:49.794Z,84.60
2019-05-28T10:23:19.334Z,85.20
2019-05-28T10:25:48.788Z,83.50
2019-05-28T10:28:18.438Z,81.90
2019-05-28T10:30:48.294Z,79.50
2019-05-28T10:33:17.804Z,76.70
2019-05-28T10:35:47.277Z,79.30
2019-05-28T10:38:17.245Z,77.40
2019-05-28T10:40:46.947Z,78.90
2019-05-28T10:43:27.588Z,79.20
2019-05-28T10:45:57.135Z,81.60
2019-05-28T10:48:26.717Z,82.50
2019-05-28T10:50:57.170Z,83.30
2019-05-28T10:53:26.677Z,82.30
2019-05-28T10:55:56.156Z,83.00
2019-05-28T10:58:26.646Z,84.10
2019-05-28T11:00:57.110Z,84.50
2019-05-28T11:03:26.693Z,86.10
2019-05-28T11:05:56.181Z,85.60
2019-05-28T11:08:25.761Z,84.90
2019-05-28T11:10:55.249Z,83.80
2019-05-28T11:13:24.770Z,85.30
2019-05-28T11:15:54.346Z,80.60
2019-05-28T11:18:23.829Z,80.50
2019-05-28T11:20:53.389Z,82.60
2019-05-28T11:23:23.018Z,83.90
2019-05-28T11:25:52.572Z,82.20
2019-05-28T11:28:22.216Z,82.80
2019-05-28T11:30:51.837Z,80.10
2019-05-28T11:33:21.340Z,82.40
2019-05-28T11:35:50.901Z,83.10
2019-05-28T11:38:20.478Z,83.00
2019-05-28T11:40:50.047Z,81.20
2019-05-28T11:43:19.620Z,83.40
2019-05-28T11:45:49.103Z,84.60
2019-05-28T11:48:18.608Z,87.00
2019-05-28T11:50:48.112Z,87.40
2019-05-28T11:53:17.634Z,89.80
2019-05-28T11:55:47.120Z,88.50
2019-05-28T11:58:16.643Z,88.60
2019-05-28T12:00:46.194Z,88.20
2019-05-28T12:03:15.711Z,86.80
2019-05-28T12:05:45.192Z,87.70
2019-05-28T12:08:14.707Z,87.60
2019-05-28T12:10:44.257Z,86.40
2019-05-28T12:13:13.806Z,86.00
2019-05-28T12:15:43.446Z,87.60
2019-05-28T12:18:12.960Z,84.50
2019-05-28T12:20:42.505Z,84.00
2019-05-28T12:23:12.383Z,86.10
2019-05-28T12:25:41.218Z,88.40
2019-05-28T12:28:10.647Z,88.50
2019-05-28T12:30:40.226Z,88.30
2019-05-28T12:33:09.700Z,87.60
2019-05-28T12:35:42.807Z,84.00
2019-05-28T12:38:10.382Z,82.90
2019-05-28T12:40:47.795Z,85.20
2019-05-28T12:43:10.992Z,84.40
2019-05-28T12:45:40.505Z,86.40
2019-05-28T12:48:12.930Z,86.50
2019-05-28T12:50:41.227Z,87.50
2019-05-28T12:53:10.781Z,85.10
2019-05-28T12:55:40.293Z,86.00
2019-05-28T12:58:09.773Z,86.00
2019-05-28T13:00:39.838Z,85.80
2019-05-28T13:03:08.542Z,85.90
2019-05-28T13:05:38.194Z,84.10
2019-05-28T13:08:10.247Z,84.40
2019-05-28T13:10:38.947Z,84.20
2019-05-28T13:13:08.430Z,82.60
2019-05-28T13:15:42.174Z,82.30
2019-05-28T13:18:09.046Z,84.00
2019-05-28T13:20:38.713Z,82.00
2019-05-28T13:23:08.270Z,81.80
2019-05-28T13:25:37.783Z,83.30
2019-05-28T13:28:07.265Z,80.60
2019-05-28T13:30:36.785Z,80.20
2019-05-28T13:33:06.331Z,79.90
2019-05-28T13:35:35.899Z,80.70
2019-05-28T13:38:05.593Z,79.90
2019-05-28T13:40:35.102Z,77.70
2019-05-28T13:43:04.744Z,76.30
2019-05-28T13:45:34.417Z,76.30
2019-05-28T13:48:03.988Z,76.00
2019-05-28T13:50:33.552Z,77.30
2019-05-28T13:53:03.037Z,78.40
2019-05-28T13:55:32.541Z,77.50
2019-05-28T13:58:02.022Z,75.10
2019-05-28T14:00:32.165Z,74.30
2019-05-28T14:03:01.649Z,75.50
2019-05-28T14:05:31.159Z,76.40
2019-05-28T14:08:00.708Z,72.20
2019-05-28T14:10:30.305Z,69.90
2019-05-28T14:12:59.789Z,72.00
2019-05-28T14:15:29.301Z,72.30
2019-05-28T14:17:58.908Z,74.70
2019-05-28T14:20:28.720Z,68.60
2019-05-28T14:22:58.221Z,68.10
2019-05-28T14:25:27.773Z,66.80
2019-05-28T14:27:57.320Z,62.20
2019-05-28T14:30:27.271Z,63.00
2019-05-28T14:32:55.973Z,63.20
2019-05-28T14:35:25.416Z,61.70
2019-05-28T14:37:54.892Z,63.80
2019-05-28T14:40:25.262Z,65.70
2019-05-28T14:42:54.821Z,65.10
2019-05-28T14:45:25.907Z,67.20
2019-05-28T14:47:55.988Z,67.10
2019-05-28T14:50:25.477Z,68.20
2019-05-28T14:52:54.989Z,65.00
2019-05-28T14:55:24.474Z,66.20
2019-05-28T14:57:53.984Z,65.30
2019-05-28T15:00:24.612Z,66.60
2019-05-28T15:02:54.350Z,67.00
2019-05-28T15:05:23.897Z,68.70
2019-05-28T15:07:53.403Z,69.40
2019-05-28T15:10:23.417Z,68.80
2019-05-28T15:12:52.161Z,70.60
2019-05-28T15:15:35.179Z,73.90
2019-05-28T15:17:52.782Z,72.70
2019-05-28T15:20:22.409Z,76.60
2019-05-28T15:22:51.919Z,78.40
2019-05-28T15:25:21.486Z,78.30
2019-05-28T15:27:51.116Z,80.40
2019-05-28T15:30:22.355Z,81.70
2019-05-28T15:32:51.857Z,80.80
2019-05-28T15:35:21.495Z,77.70
2019-05-28T15:37:51.000Z,80.40
2019-05-28T15:40:20.626Z,82.00
2019-05-28T15:43:05.174Z,80.80
2019-05-28T15:45:21.381Z,83.40
2019-05-28T15:47:50.883Z,80.20
2019-05-28T15:50:20.525Z,82.90
2019-05-28T15:52:50.037Z,83.30
2019-05-28T15:55:19.684Z,82.40
2019-05-28T15:57:49.388Z,82.30
2019-05-28T16:00:23.926Z,83.20
2019-05-28T16:02:54.506Z,83.30
2019-05-28T16:05:23.990Z,81.90
2019-05-28T16:07:53.497Z,81.30
2019-05-28T16:10:23.121Z,81.90
2019-05-28T16:12:52.701Z,81.70
2019-05-28T16:15:22.297Z,81.20
2019-05-28T16:17:51.816Z,81.10
2019-05-28T16:20:21.634Z,81.20
2019-05-28T16:22:51.141Z,81.50
2019-05-28T16:25:21.065Z,82.30
2019-05-28T16:27:49.788Z,83.60
2019-05-28T16:30:19.783Z,82.50
2019-05-28T16:32:48.502Z,77.80
2019-05-28T16:35:20.249Z,83.70
2019-05-28T16:37:49.836Z,84.60
2019-05-28T16:40:19.852Z,85.10
2019-05-28T16:42:49.433Z,84.80
2019-05-28T16:45:19.559Z,86.10
2019-05-28T16:47:49.063Z,86.30
2019-05-28T16:50:18.784Z,86.50
2019-05-28T16:52:48.298Z,86.20
2019-05-28T16:55:17.998Z,84.00
2019-05-28T16:57:47.577Z,77.70
2019-05-28T17:00:18.596Z,84.70
2019-05-28T17:02:48.077Z,84.50
2019-05-28T17:05:17.689Z,86.10
2019-05-28T17:07:47.205Z,86.60
2019-05-28T17:10:31.342Z,86.60
2019-05-28T17:12:48.104Z,86.30
2019-05-28T17:15:18.528Z,86.70
2019-05-28T17:17:48.041Z,86.70
2019-05-28T17:20:20.526Z,87.40
2019-05-28T17:22:50.277Z,87.00
2019-05-28T17:25:19.960Z,87.20
2019-05-28T17:27:49.479Z,87.20
2019-05-28T17:30:23.983Z,87.40
2019-05-28T17:32:50.471Z,87.40
2019-05-28T17:35:20.106Z,87.10
2019-05-28T17:37:49.615Z,87.40
2019-05-28T17:40:22.498Z,87.70
2019-05-28T17:42:50.590Z,88.10
2019-05-28T17:45:20.315Z,86.00
2019-05-28T17:47:49.898Z,88.00
2019-05-28T17:50:19.566Z,87.20
2019-05-28T17:52:51.620Z,85.10
2019-05-28T17:55:20.381Z,84.60
2019-05-28T17:57:49.978Z,86.70
2019-05-28T18:00:19.531Z,87.60
2019-05-28T18:02:49.111Z,89.20
2019-05-28T18:05:18.616Z,89.80
2019-05-28T18:07:48.208Z,90.20
2019-05-28T18:10:18.165Z,90.60
2019-05-28T18:12:47.018Z,90.50
2019-05-28T18:15:19.087Z,90.70
2019-05-28T18:17:48.594Z,90.70
2019-05-28T18:20:18.233Z,91.50
2019-05-28T18:22:47.757Z,91.30
2019-05-28T18:25:20.173Z,91.00
2019-05-28T18:27:48.669Z,91.30
2019-05-28T18:30:18.702Z,91.50
2019-05-28T18:32:47.424Z,91.70
2019-05-28T18:35:16.901Z,91.40
2019-05-28T18:37:46.482Z,91.90
2019-05-28T18:40:21.860Z,92.10
2019-05-28T18:42:51.574Z,91.40
2019-05-28T18:45:21.203Z,92.50
2019-05-28T18:47:50.719Z,93.00
2019-05-28T18:50:20.429Z,93.30
2019-05-28T18:52:49.925Z,93.70
2019-05-28T18:55:19.556Z,93.70
2019-05-28T18:57:50.590Z,94.20
2019-05-28T19:00:20.647Z,94.40
2019-05-28T19:02:50.183Z,94.50
2019-05-28T19:05:19.786Z,94.80
2019-05-28T19:07:49.365Z,95.30
2019-05-28T19:10:18.921Z,95.60
2019-05-28T19:12:48.441Z,95.30
2019-05-28T19:15:18.053Z,94.90
2019-05-28T19:17:47.737Z,95.00
2019-05-28T19:20:17.354Z,95.70
2019-05-28T19:22:46.848Z,93.60
2019-05-28T19:25:17.158Z,93.10
2019-05-28T19:27:46.668Z,91.30
2019-05-28T19:30:20.411Z,91.70
2019-05-28T19:32:50.259Z,93.00
2019-05-28T19:35:19.795Z,92.50
2019-05-28T19:37:49.457Z,92.50
2019-05-28T19:40:33.759Z,93.50
2019-05-28T19:43:05.202Z,93.50
2019-05-28T19:45:35.775Z,93.20
2019-05-28T19:48:06.659Z,93.20
2019-05-28T19:50:36.337Z,93.50
2019-05-28T19:53:06.245Z,93.90
2019-05-28T19:55:35.719Z,94.00
2019-05-28T19:58:05.625Z,93.60
2019-05-28T20:00:35.227Z,95.30
2019-05-28T20:03:05.130Z,95.50
2019-05-28T20:05:34.744Z,95.30
2019-05-28T20:08:05.488Z,96.10
2019-05-28T20:10:34.957Z,96.50
2019-05-28T20:13:04.469Z,97.40
2019-05-28T20:15:34.001Z,98.40
2019-05-28T20:18:03.578Z,99.00
2019-05-28T20:20:33.123Z,99.60
2019-05-28T20:23:02.565Z,99.90
2019-05-28T20:25:32.033Z,99.90
2019-05-28T20:28:01.477Z,99.90
2019-05-28T20:30:31.109Z,99.80
2019-05-28T20:33:01.246Z,99.90
2019-05-28T20:35:31.204Z,99.90
2019-05-28T20:38:04.009Z,99.90
2019-05-28T20:40:30.939Z,99.90
2019-05-28T20:43:00.362Z,99.90
2019-05-28T20:45:29.966Z,99.90
2019-05-28T20:48:00.432Z,99.90
2019-05-28T20:50:30.172Z,99.90
2019-05-28T20:52:59.610Z,99.90
2019-05-28T20:55:29.078Z,99.90
2019-05-28T20:57:58.517Z,99.90
2019-05-28T21:00:28.054Z,99.90
2019-05-28T21:02:57.924Z,99.90
2019-05-28T21:05:27.381Z,99.90
2019-05-28T21:07:56.880Z,99.90
2019-05-28T21:10:26.417Z,99.90
2019-05-28T21:12:56.951Z,99.90
2019-05-28T21:15:26.486Z,99.90
2019-05-28T21:17:57.214Z,99.90
2019-05-28T21:20:26.894Z,99.90
2019-05-28T21:22:56.338Z,99.90
2019-05-28T21:25:38.232Z,99.90
2019-05-28T21:28:07.682Z,99.90
2019-05-28T21:30:37.141Z,99.90
2019-05-28T21:33:06.583Z,99.90
2019-05-28T21:35:36.051Z,99.90
2019-05-28T21:38:05.490Z,99.90
2019-05-28T21:40:35.022Z,99.90
2019-05-28T21:43:09.321Z,99.90
2019-05-28T21:45:35.602Z,99.90
2019-05-28T21:48:05.118Z,99.90
2019-05-28T21:50:34.576Z,99.90
2019-05-28T21:53:04.922Z,99.90
2019-05-28T21:55:34.394Z,99.90
2019-05-28T21:58:04.114Z,99.90
2019-05-28T22:00:48.154Z,99.90
2019-05-28T22:03:17.732Z,99.90
2019-05-28T22:05:47.191Z,99.90
2019-05-28T22:08:16.632Z,99.90
2019-05-28T22:10:46.156Z,99.90
2019-05-28T22:13:21.950Z,99.90
2019-05-28T22:15:46.757Z,99.90
2019-05-28T22:18:16.265Z,99.90
2019-05-28T22:20:45.823Z,99.90
2019-05-28T22:23:15.328Z,99.90
2019-05-28T22:25:44.775Z,99.90
2019-05-28T22:28:14.306Z,99.90
2019-05-28T22:30:43.981Z,99.90
2019-05-28T22:33:13.512Z,99.90
2019-05-28T22:35:43.393Z,99.90
2019-05-28T22:38:12.857Z,99.90
2019-05-28T22:40:42.433Z,99.90
2019-05-28T22:43:11.890Z,99.90
2019-05-28T22:45:43.257Z,99.90
2019-05-28T22:48:16.534Z,99.90
2019-05-28T22:50:44.555Z,99.90
2019-05-28T22:53:14.185Z,99.90
2019-05-28T22:55:43.629Z,99.90
2019-05-28T22:58:14.161Z,99.90
2019-05-28T23:00:43.596Z,99.90
2019-05-28T23:03:13.060Z,99.90
2019-05-28T23:05:42.497Z,99.90
2019-05-28T23:08:11.965Z,99.90
2019-05-28T23:10:41.404Z,99.90
2019-05-28T23:13:11.248Z,99.90
2019-05-28T23:15:40.798Z,99.90
2019-05-28T23:18:11.016Z,99.90
2019-05-28T23:20:40.506Z,99.90
2019-05-28T23:23:09.975Z,99.90
2019-05-28T23:25:39.401Z,99.90
2019-05-28T23:28:09.824Z,99.90
2019-05-28T23:30:39.309Z,99.90
2019-05-28T23:33:10.398Z,99.90
2019-05-28T23:35:39.866Z,99.90
2019-05-28T23:38:11.201Z,99.90
2019-05-28T23:40:41.872Z,99.90
2019-05-28T23:43:11.603Z,99.90
2019-05-28T23:45:40.663Z,99.90
2019-05-28T23:48:14.185Z,99.90
2019-05-28T23:50:41.154Z,99.90
2019-05-28T23:53:11.683Z,99.90
2019-05-28T23:55:41.217Z,99.90
2019-05-28T23:58:11.854Z,99.90
